Latest Weather Observations for Griffith

IDN60801

Issued at 4:32 pm EST Monday 3 August 2015 (issued every 30 minutes, with the page automatically refreshed every 10 minutes)

About weather observations | Map of weather stations | Latest weather observations for NSW | Other Formats
Station Details ID: 075041 Name: GRIFFITH AIRPORT AWS Lat: -34.25 Lon: 146.07 Height: 134.0 m
Data from the previous 72 hours. | See also: Recent months at Griffith
Date/Time
EST
Temp
°C
App
Temp
°C
Dew
Point
Rel
Hum
%
Delta-T
°C
Wind Press
QNH
hPa
Press
MSL
hPa
Rain
since 9 am
mm
Dir
 
Spd
km/h
Gust
km/h
Spd
kts
Gust
kts
03/04:30pm 11.3 3.8 3.6 59 3.4 WSW 32 44 17 24 1021.1 1021.3 0.0
03/04:00pm 12.1 7.1 6.6 69 2.6 WSW 22 30 12 16 1020.7 1020.9 0.0
03/03:30pm 12.7 6.2 6.5 66 3.0 W 30 46 16 25 1020.4 1020.6 0.0
03/03:00pm 11.5 6.3 7.2 75 2.1 W 24 35 13 19 1020.4 1020.6 0.0
03/02:42pm 11.1 4.9 6.0 71 2.4 W 28 46 15 25 1020.2 1020.4 0.0
03/02:30pm 11.6 5.4 6.1 69 2.6 W 28 37 15 20 1020.2 1020.4 0.0
03/02:00pm 11.0 4.9 6.4 73 2.2 WSW 28 39 15 21 1020.2 1020.4 0.0
03/01:30pm 11.7 4.4 5.3 65 3.0 SW 33 44 18 24 1020.4 1020.6 0.0
03/01:00pm 11.9 5.1 5.3 64 3.1 WSW 30 41 16 22 1020.5 1020.7 0.0
03/12:30pm 12.1 6.4 6.8 70 2.5 W 26 37 14 20 1020.6 1020.8 0.0
03/12:00pm 11.6 5.2 6.9 73 2.2 WSW 30 41 16 22 1020.8 1021.0 0.0
03/11:30am 10.8 3.7 6.4 74 2.1 WSW 33 44 18 24 1021.0 1021.2 0.0
03/11:00am 10.8 4.3 6.4 74 2.1 W 30 41 16 22 1021.1 1021.3 0.0
03/10:30am 10.8 4.4 7.1 78 1.8 W 30 41 16 22 1021.2 1021.4 0.0
03/10:00am 10.3 4.2 6.8 79 1.7 W 28 43 15 23 1021.2 1021.4 0.0
03/09:30am 10.0 4.0 7.1 82 1.4 W 28 41 15 22 1020.9 1021.1 0.0
03/09:00am 9.1 4.1 6.5 84 1.2 W 22 32 12 17 1021.0 1021.2 0.0
03/08:30am 8.8 4.3 6.8 87 0.9 W 20 24 11 13 1020.9 1021.1 0.0
03/08:00am 8.4 4.3 6.4 87 0.9 W 17 22 9 12 1020.8 1021.0 0.0
03/07:30am 8.2 4.1 6.3 88 0.9 W 17 20 9 11 1020.6 1020.8 0.0
03/07:00am 8.2 3.7 6.3 88 0.9 W 19 26 10 14 1020.1 1020.3 0.0
03/06:30am 8.2 4.1 6.2 87 0.9 W 17 22 9 12 1020.0 1020.2 0.0
03/06:00am 8.3 4.2 6.3 87 0.9 W 17 24 9 13 1019.8 1020.0 0.0
03/05:30am 8.6 4.5 6.2 85 1.1 WNW 17 28 9 15 1019.6 1019.8 0.0
03/05:00am 8.7 3.9 5.8 82 1.3 W 20 26 11 14 1019.5 1019.7 0.0
03/04:30am 8.7 4.1 5.8 82 1.3 WNW 19 22 10 12 1019.4 1019.6 0.0
03/04:00am 8.3 4.5 5.9 85 1.1 WNW 15 19 8 10 1019.4 1019.6 0.0
03/03:30am 8.2 4.4 5.7 84 1.1 WNW 15 19 8 10 1019.6 1019.8 0.0
03/03:00am 8.1 4.2 5.2 82 1.3 WNW 15 20 8 11 1019.7 1019.9 0.0
03/02:30am 8.3 4.5 5.6 83 1.2 WNW 15 20 8 11 1019.7 1019.9 0.0
03/02:00am 8.3 4.0 5.2 81 1.4 WNW 17 20 9 11 1019.9 1020.1 0.0
03/01:30am 8.0 4.1 5.5 84 1.1 NW 15 20 8 11 1019.8 1020.0 0.0
03/01:00am 7.3 4.2 5.6 89 0.8 NW 11 13 6 7 1020.0 1020.2 0.0
03/12:30am 6.6 4.0 5.9 95 0.3 NNW 9 11 5 6 1020.2 1020.4 0.0
03/12:00am 5.8 4.1 5.7 99 0.0 NW 4 7 2 4 1020.4 1020.6 0.0
 
Date/Time
EST
Temp
°C
App
Temp
°C
Dew
Point
Rel
Hum
%
Delta-T
°C
Wind Press
QNH
hPa
Press
MSL
hPa
Rain
since 9 am
mm
Dir
 
Spd
km/h
Gust
km/h
Spd
kts
Gust
kts
02/11:30pm 5.1 3.9 4.8 98 0.1 CALM 0 0 0 0 1020.3 1020.5 0.0
02/11:00pm 4.7 2.9 3.7 93 0.4 NW 2 6 1 3 1020.4 1020.6 0.0
02/10:30pm 5.5 3.1 4.5 93 0.4 NNW 6 6 3 3 1020.4 1020.6 0.0
02/10:00pm 6.4 3.6 5.0 91 0.6 NNW 9 9 5 5 1020.5 1020.7 0.0
02/09:30pm 6.7 5.7 5.8 94 0.4 CALM 0 0 0 0 1020.5 1020.7 0.0
02/09:00pm 5.4 3.9 5.1 98 0.1 N 2 7 1 4 1020.4 1020.6 0.0
02/08:30pm 4.4 1.7 3.8 96 0.3 N 7 9 4 5 1020.2 1020.4 0.0
02/08:00pm 4.4 2.9 3.1 91 0.5 CALM 0 0 0 0 1020.0 1020.2 0.0
02/07:30pm 5.8 4.5 4.1 89 0.7 CALM 0 0 0 0 1019.8 1020.0 0.0
02/07:00pm 5.8 4.4 3.8 87 0.8 CALM 0 0 0 0 1019.4 1019.6 0.0
02/06:30pm 7.1 4.5 4.1 81 1.3 WNW 7 7 4 4 1019.1 1019.3 0.0
02/06:00pm 8.3 5.4 4.5 77 1.7 W 9 11 5 6 1018.6 1018.8 0.0
02/05:30pm 9.7 5.6 4.3 69 2.4 W 15 19 8 10 1018.2 1018.3 0.0
02/05:00pm 10.9 6.0 5.0 67 2.7 WSW 20 24 11 13 1017.8 1017.9 0.0
02/04:30pm 11.2 5.6 5.3 67 2.7 WSW 24 30 13 16 1017.5 1017.6 0.0
02/04:00pm 11.5 6.3 5.6 67 2.7 WSW 22 28 12 15 1017.2 1017.3 0.0
02/03:30pm 11.1 5.0 5.0 66 2.8 WSW 26 37 14 20 1016.8 1016.9 0.0
02/03:00pm 11.5 5.6 5.6 67 2.7 SW 26 37 14 20 1016.3 1016.4 0.0
02/02:30pm 11.9 6.3 7.0 72 2.4 WSW 26 35 14 19 1015.8 1015.9 0.0
02/02:00pm 12.3 8.0 7.0 70 2.6 W 19 30 10 16 1015.6 1015.8 0.0
02/01:30pm 11.9 6.1 6.2 68 2.7 WSW 26 35 14 19 1016.0 1016.1 0.0
02/01:00pm 11.4 5.9 6.1 70 2.5 WSW 24 32 13 17 1015.4 1015.6 0.0
02/12:30pm 10.9 6.6 7.2 78 1.8 SSW 19 28 10 15 1015.8 1015.9 0.0
02/12:00pm 10.2 5.3 6.7 79 1.7 SW 22 32 12 17 1016.1 1016.2 0.0
02/11:30am 10.0 5.5 7.1 82 1.4 SW 20 26 11 14 1017.2 1017.3 0.0
02/11:26am 9.9 5.4 6.8 81 1.5 SW 20 26 11 14 1016.2 1016.3 0.0
02/11:00am 9.9 4.9 8.2 89 0.8 SSW 24 33 13 18 1016.2 1016.3 0.0
02/10:30am 9.8 5.8 9.0 95 0.4 SSW 20 30 11 16 1015.3 1015.5 0.0
02/10:00am 10.1 6.9 9.9 99 0.1 SW 17 24 9 13 1015.8 1015.9 0.0
02/09:30am 9.4 4.7 9.4 100 0.0 SW 24 33 13 18 1015.1 1015.3 0.0
02/09:19am 9.3 4.2 9.3 100 0.0 SW 26 32 14 17 1015.1 1015.3 0.0
02/09:00am 9.4 5.5 9.4 100 0.0 WSW 20 26 11 14 1014.8 1015.0 1.4
02/08:30am 9.0 7.1 9.0 100 0.0 WSW 9 15 5 8 1014.2 1014.4 1.4
02/08:00am 8.9 5.8 8.8 99 0.0 WSW 15 19 8 10 1013.9 1014.1 1.4
02/07:48am 8.8 5.3 8.7 99 0.0 SW 17 24 9 13 1013.7 1013.9 1.4
02/07:38am 8.7 4.2 8.6 99 0.0 SW 22 28 12 15 1014.0 1014.2 1.4
02/07:30am 8.9 5.0 8.8 99 0.0 SW 19 24 10 13 1013.8 1014.0 1.4
02/07:25am 9.0 5.0 8.9 99 0.0 SW 20 24 11 13 1013.7 1013.9 1.4
02/07:22am 9.2 5.2 9.1 99 0.0 WSW 20 24 11 13 1013.6 1013.8 1.4
02/07:00am 9.9 7.0 9.6 98 0.2 SW 15 22 8 12 1013.0 1013.2 1.4
02/06:30am 9.8 6.9 9.7 99 0.1 SW 15 22 8 12 1012.4 1012.6 1.4
02/06:00am 10.4 5.6 8.8 90 0.8 SW 24 32 13 17 1011.9 1012.0 1.4
02/05:30am 13.0 10.6 8.5 74 2.3 N 11 17 6 9 1010.7 1010.8 1.4
02/05:00am 13.6 7.1 8.0 69 2.8 NE 32 41 17 22 1010.1 1010.2 1.4
02/04:30am 12.7 8.6 8.6 76 2.1 NE 20 28 11 15 1011.5 1011.6 1.4
02/04:00am 11.9 7.3 9.5 85 1.2 NE 24 30 13 16 1012.0 1012.1 1.4
02/03:30am 11.3 4.9 10.7 96 0.3 ENE 35 46 19 25 1011.8 1011.9 1.4
02/03:23am 11.1 4.8 10.9 99 0.1 ENE 35 46 19 25 1011.1 1011.2 1.2
02/03:00am 10.7 6.0 10.5 99 0.1 ENE 26 35 14 19 1013.2 1013.4 1.2
02/02:30am 10.7 6.0 10.5 99 0.1 ENE 26 35 14 19 1013.5 1013.7 1.2
02/02:00am 10.5 6.1 10.3 99 0.1 E 24 28 13 15 1013.6 1013.8 0.6
02/01:30am 10.7 8.8 10.5 99 0.1 E 11 17 6 9 1014.8 1015.0 0.4
02/01:00am 10.5 6.1 10.3 99 0.1 E 24 33 13 18 1014.2 1014.4 0.2
02/12:30am 10.7 7.3 10.5 99 0.1 SE 19 24 10 13 1016.2 1016.3 0.0
02/12:00am 10.6 7.0 10.4 99 0.1 ESE 20 26 11 14 1015.0 1015.2 0.0
 
Date/Time
EST
Temp
°C
App
Temp
°C
Dew
Point
Rel
Hum
%
Delta-T
°C
Wind Press
QNH
hPa
Press
MSL
hPa
Rain
since 9 am
mm
Dir
 
Spd
km/h
Gust
km/h
Spd
kts
Gust
kts
01/11:30pm 10.8 7.8 10.6 99 0.1 ESE 17 22 9 12 1016.1 1016.2 0.0
01/11:29pm 10.8 7.8 10.6 99 0.1 ESE 17 22 9 12 1016.1 1016.2 0.0
01/11:00pm 11.2 9.1 11.0 99 0.1 SE 13 20 7 11 1016.6 1016.7 0.0
01/10:55pm 11.2 9.1 11.0 99 0.1 SE 13 17 7 9 1016.4 1016.5 0.0
01/10:30pm 11.2 7.7 11.0 99 0.1 ESE 20 22 11 12 1016.0 1016.1 0.0
01/10:00pm 11.5 8.7 11.3 99 0.1 ESE 17 20 9 11 1016.2 1016.3 0.0
01/09:30pm 11.8 8.6 11.2 96 0.3 S 19 26 10 14 1017.0 1017.1 0.0
01/09:00pm 11.8 9.4 11.3 97 0.3 SE 15 20 8 11 1016.9 1017.0 0.0
01/08:30pm 11.9 8.8 11.6 98 0.2 S 19 26 10 14 1016.7 1016.8 0.0
01/08:00pm 12.2 9.7 11.1 93 0.6 S 15 20 8 11 1016.6 1016.7 0.0
01/07:30pm 12.4 9.2 10.1 86 1.2 SSW 17 20 9 11 1017.0 1017.1 0.0
01/07:00pm 13.5 9.3 8.1 70 2.7 SW 20 28 11 15 1017.1 1017.2 0.0
01/06:30pm 13.1 10.6 8.0 71 2.5 SW 11 13 6 7 1016.4 1016.5 0.0
01/06:00pm 13.5 12.9 7.5 67 3.0 CALM 0 0 0 0 1015.9 1016.0 0.0
01/05:30pm 13.9 11.0 8.1 68 2.9 WSW 13 13 7 7 1016.3 1016.4 0.0
01/05:00pm 15.0 12.8 8.0 63 3.5 WNW 9 9 5 5 1015.5 1015.7 0.0
01/04:30pm 15.6 13.7 7.4 58 4.1 NW 7 7 4 4 1015.0 1015.2 0.0
01/04:00pm 15.7 12.7 5.9 52 4.7 NW 11 15 6 8 1015.0 1015.2 0.0
01/03:30pm 16.8 14.2 6.3 50 5.2 NW 9 13 5 7 1015.2 1015.4 0.0
01/03:00pm 16.1 12.8 6.5 53 4.7 WNW 13 17 7 9 1015.5 1015.7 0.0
01/02:30pm 16.6 13.7 6.4 51 5.0 WNW 11 17 6 9 1015.0 1015.2 0.0
01/02:00pm 16.7 12.3 5.0 46 5.6 NW 17 20 9 11 1014.6 1014.8 0.0
01/01:30pm 16.6 12.5 6.4 51 5.0 NW 17 22 9 12 1014.9 1015.1 0.0
01/01:00pm 16.2 11.9 5.2 48 5.3 NW 17 20 9 11 1015.6 1015.8 0.0
01/12:30pm 15.7 11.3 4.7 48 5.2 NW 17 24 9 13 1015.9 1016.0 0.0
01/12:00pm 15.8 10.8 4.5 47 5.3 NW 20 32 11 17 1016.1 1016.2 0.0
01/11:30am 14.9 10.6 5.4 53 4.5 NW 17 22 9 12 1016.7 1016.8 0.0
01/11:00am 14.8 9.8 4.5 50 4.8 NNW 20 26 11 14 1016.7 1016.8 0.0
01/10:30am 14.4 9.4 4.7 52 4.5 NNW 20 26 11 14 1016.6 1016.7 0.0
01/10:00am 13.7 8.9 4.8 55 4.1 NNW 19 24 10 13 1016.6 1016.7 0.0
01/09:30am 13.5 8.5 4.6 55 4.1 NNW 20 28 11 15 1016.6 1016.8 0.0
01/09:00am 13.1 8.2 5.3 59 3.7 NNW 20 28 11 15 1016.6 1016.8 0.0
01/08:30am 12.9 8.0 5.1 59 3.6 NNW 20 26 11 14 1016.4 1016.6 0.0
01/08:00am 12.7 7.3 4.7 58 3.7 NNW 22 28 12 15 1016.1 1016.3 0.0
01/07:30am 12.0 8.0 4.7 61 3.4 NNW 15 19 8 10 1016.0 1016.2 0.0
01/07:00am 11.7 7.1 5.6 66 2.8 NNW 19 22 10 12 1015.8 1016.0 0.0
01/06:30am 11.8 7.3 6.3 69 2.6 NNW 19 22 10 12 1016.0 1016.2 0.0
01/06:00am 10.6 7.9 7.3 80 1.6 NW 11 15 6 8 1015.8 1016.0 0.0
01/05:30am 9.6 7.7 7.4 86 1.1 NW 7 11 4 6 1015.8 1016.0 0.0
01/05:00am 9.1 7.2 7.4 89 0.8 NW 7 11 4 6 1015.9 1016.1 0.0
01/04:30am 8.8 6.8 6.9 88 0.9 NW 7 7 4 4 1016.2 1016.4 0.0
01/04:00am 9.1 6.7 6.9 86 1.0 NW 9 13 5 7 1016.2 1016.4 0.0
01/03:30am 9.2 7.4 8.0 92 0.6 N 7 11 4 6 1016.2 1016.4 0.0
01/03:00am 7.4 6.7 7.1 98 0.1 CALM 0 0 0 0 1016.9 1017.1 0.0
01/02:30am 5.9 4.9 5.8 99 0.0 CALM 0 0 0 0 1017.4 1017.6 0.0
01/02:00am 5.9 4.8 5.2 95 0.3 CALM 0 0 0 0 1017.8 1018.0 0.0
01/01:30am 7.0 5.4 6.4 96 0.3 W 4 6 2 3 1018.2 1018.4 0.0
01/01:00am 7.6 5.6 7.2 97 0.2 N 7 9 4 5 1018.5 1018.7 0.0
01/12:30am 6.8 4.7 6.7 99 0.0 NNE 7 9 4 5 1018.8 1019.0 0.0
01/12:00am 6.2 2.8 6.1 99 0.0 ENE 13 15 7 8 1018.9 1019.1 0.0
 
Date/Time
EST
Temp
°C
App
Temp
°C
Dew
Point
Rel
Hum
%
Delta-T
°C
Wind Press
QNH
hPa
Press
MSL
hPa
Rain
since 9 am
mm
Dir
 
Spd
km/h
Gust
km/h
Spd
kts
Gust
kts
31/11:30pm 5.6 2.0 5.2 97 0.2 ENE 13 15 7 8 1019.3 1019.5 0.0
31/11:00pm 6.2 5.2 5.5 95 0.3 CALM 0 0 0 0 1019.8 1020.0 0.0
31/10:30pm 5.7 4.7 5.4 98 0.1 CALM 0 0 0 0 1019.9 1020.1 0.0
31/10:00pm 5.6 4.1 5.0 96 0.3 E 2 6 1 3 1020.1 1020.3 0.0
31/09:30pm 6.1 5.1 5.5 96 0.3 CALM 0 0 0 0 1020.2 1020.4 0.0
31/09:00pm 5.9 4.6 4.2 89 0.7 CALM 0 0 0 0 1020.3 1020.5 0.0
31/08:30pm 7.6 5.8 5.6 87 0.9 ENE 4 7 2 4 1020.0 1020.2 0.0
31/08:00pm 7.6 5.6 6.2 91 0.6 NE 6 9 3 5 1019.9 1020.1 0.0
31/07:30pm 7.7 5.4 5.7 87 0.9 NNE 7 7 4 4 1020.0 1020.2 0.0
31/07:00pm 6.5 5.4 5.0 90 0.7 CALM 0 0 0 0 1019.9 1020.1 0.0
31/06:30pm 7.1 4.7 5.4 89 0.8 N 7 7 4 4 1019.8 1020.0 0.0
31/06:00pm 7.6 6.1 5.1 84 1.1 NNE 2 7 1 4 1019.6 1019.8 0.0
31/05:30pm 11.7 9.8 6.6 71 2.4 WNW 6 6 3 3 1019.6 1019.8 0.0
31/05:00pm 12.7 10.7 7.0 68 2.8 WNW 7 41 4 22 1019.5 1019.7 0.0

Other Formats:

Comma delimited format used in spreadsheet applications
http://www.bom.gov.au/fwo/IDN60801/IDN60801.95704.axf

JavaScript Object Notation format (JSON) in row-major order
http://www.bom.gov.au/fwo/IDN60801/IDN60801.95704.json